sensor_id;sensor_type;location;lat;lon;timestamp;P1;durP1;ratioP1;P2;durP2;ratioP2
25123;SDS011;13104;51.030;4.686;2023-06-22T00:01:52;6.22;;;4.30;;
25123;SDS011;13104;51.030;4.686;2023-06-22T00:04:18;5.82;;;3.58;;
25123;SDS011;13104;51.030;4.686;2023-06-22T00:06:44;8.10;;;3.92;;
25123;SDS011;13104;51.030;4.686;2023-06-22T00:09:10;5.72;;;4.15;;
25123;SDS011;13104;51.030;4.686;2023-06-22T00:11:37;5.75;;;3.97;;
25123;SDS011;13104;51.030;4.686;2023-06-22T00:14:03;7.60;;;4.28;;
25123;SDS011;13104;51.030;4.686;2023-06-22T00:16:31;7.78;;;4.13;;
25123;SDS011;13104;51.030;4.686;2023-06-22T00:18:58;7.35;;;4.28;;
25123;SDS011;13104;51.030;4.686;2023-06-22T00:21:29;8.85;;;4.45;;
25123;SDS011;13104;51.030;4.686;2023-06-22T00:23:55;6.05;;;4.28;;
25123;SDS011;13104;51.030;4.686;2023-06-22T00:26:22;6.55;;;4.13;;
25123;SDS011;13104;51.030;4.686;2023-06-22T00:28:49;6.35;;;4.32;;
25123;SDS011;13104;51.030;4.686;2023-06-22T00:31:15;6.63;;;4.47;;
25123;SDS011;13104;51.030;4.686;2023-06-22T00:33:41;7.03;;;4.80;;
25123;SDS011;13104;51.030;4.686;2023-06-22T00:36:08;8.70;;;5.00;;
25123;SDS011;13104;51.030;4.686;2023-06-22T00:38:38;8.00;;;5.18;;
25123;SDS011;13104;51.030;4.686;2023-06-22T00:41:05;6.75;;;4.53;;
25123;SDS011;13104;51.030;4.686;2023-06-22T00:43:31;8.27;;;4.85;;
25123;SDS011;13104;51.030;4.686;2023-06-22T00:45:57;6.35;;;4.45;;
25123;SDS011;13104;51.030;4.686;2023-06-22T00:48:23;7.43;;;5.00;;
25123;SDS011;13104;51.030;4.686;2023-06-22T00:50:50;6.57;;;4.65;;
25123;SDS011;13104;51.030;4.686;2023-06-22T00:53:18;8.68;;;5.85;;
25123;SDS011;13104;51.030;4.686;2023-06-22T00:55:45;8.90;;;5.75;;
25123;SDS011;13104;51.030;4.686;2023-06-22T00:58:18;8.57;;;5.13;;
25123;SDS011;13104;51.030;4.686;2023-06-22T01:00:47;10.10;;;5.70;;
25123;SDS011;13104;51.030;4.686;2023-06-22T01:03:13;11.77;;;5.45;;
25123;SDS011;13104;51.030;4.686;2023-06-22T01:05:41;7.53;;;5.30;;
25123;SDS011;13104;51.030;4.686;2023-06-22T01:11:03;11.38;;;5.50;;
25123;SDS011;13104;51.030;4.686;2023-06-22T01:13:45;9.20;;;5.85;;
25123;SDS011;13104;51.030;4.686;2023-06-22T01:16:21;7.35;;;5.35;;
25123;SDS011;13104;51.030;4.686;2023-06-22T01:18:48;8.48;;;5.93;;
25123;SDS011;13104;51.030;4.686;2023-06-22T01:21:16;8.20;;;5.85;;
25123;SDS011;13104;51.030;4.686;2023-06-22T01:29:10;9.48;;;5.95;;
25123;SDS011;13104;51.030;4.686;2023-06-22T01:31:38;10.43;;;5.90;;
25123;SDS011;13104;51.030;4.686;2023-06-22T01:34:06;8.98;;;5.70;;
25123;SDS011;13104;51.030;4.686;2023-06-22T01:36:33;7.35;;;5.50;;
25123;SDS011;13104;51.030;4.686;2023-06-22T01:38:59;7.63;;;5.65;;
25123;SDS011;13104;51.030;4.686;2023-06-22T01:41:26;8.63;;;5.20;;
25123;SDS011;13104;51.030;4.686;2023-06-22T01:43:54;9.65;;;5.85;;
25123;SDS011;13104;51.030;4.686;2023-06-22T01:46:21;7.25;;;5.38;;
25123;SDS011;13104;51.030;4.686;2023-06-22T01:48:47;8.48;;;5.75;;
25123;SDS011;13104;51.030;4.686;2023-06-22T01:51:13;8.93;;;6.32;;
25123;SDS011;13104;51.030;4.686;2023-06-22T01:53:39;6.97;;;5.38;;
25123;SDS011;13104;51.030;4.686;2023-06-22T01:56:06;11.32;;;5.78;;
25123;SDS011;13104;51.030;4.686;2023-06-22T01:58:32;12.32;;;6.47;;
25123;SDS011;13104;51.030;4.686;2023-06-22T02:01:09;13.57;;;6.40;;
25123;SDS011;13104;51.030;4.686;2023-06-22T02:03:42;9.43;;;6.32;;
25123;SDS011;13104;51.030;4.686;2023-06-22T02:06:23;7.65;;;5.57;;
25123;SDS011;13104;51.030;4.686;2023-06-22T02:08:57;8.32;;;5.90;;
25123;SDS011;13104;51.030;4.686;2023-06-22T02:11:25;10.85;;;6.13;;
25123;SDS011;13104;51.030;4.686;2023-06-22T02:13:52;9.25;;;6.38;;
25123;SDS011;13104;51.030;4.686;2023-06-22T02:16:20;12.07;;;6.75;;
25123;SDS011;13104;51.030;4.686;2023-06-22T02:18:47;8.75;;;6.75;;
25123;SDS011;13104;51.030;4.686;2023-06-22T02:21:15;8.60;;;6.63;;
25123;SDS011;13104;51.030;4.686;2023-06-22T02:23:41;9.43;;;6.82;;
25123;SDS011;13104;51.030;4.686;2023-06-22T02:26:08;10.00;;;7.13;;
25123;SDS011;13104;51.030;4.686;2023-06-22T02:28:34;11.15;;;7.43;;
25123;SDS011;13104;51.030;4.686;2023-06-22T02:31:00;10.50;;;7.10;;
25123;SDS011;13104;51.030;4.686;2023-06-22T02:33:26;10.93;;;7.88;;
25123;SDS011;13104;51.030;4.686;2023-06-22T02:35:52;11.57;;;7.38;;
25123;SDS011;13104;51.030;4.686;2023-06-22T02:38:19;10.48;;;7.13;;
25123;SDS011;13104;51.030;4.686;2023-06-22T02:40:45;12.70;;;7.65;;
25123;SDS011;13104;51.030;4.686;2023-06-22T02:43:11;12.30;;;7.18;;
25123;SDS011;13104;51.030;4.686;2023-06-22T02:45:37;8.90;;;6.78;;
25123;SDS011;13104;51.030;4.686;2023-06-22T02:48:04;14.20;;;7.32;;
25123;SDS011;13104;51.030;4.686;2023-06-22T02:50:30;11.15;;;7.47;;
25123;SDS011;13104;51.030;4.686;2023-06-22T02:52:57;12.88;;;7.53;;
25123;SDS011;13104;51.030;4.686;2023-06-22T02:55:23;14.05;;;7.60;;
25123;SDS011;13104;51.030;4.686;2023-06-22T02:57:49;9.15;;;6.80;;
25123;SDS011;13104;51.030;4.686;2023-06-22T03:00:17;9.65;;;7.50;;
25123;SDS011;13104;51.030;4.686;2023-06-22T03:02:44;9.43;;;7.13;;
25123;SDS011;13104;51.030;4.686;2023-06-22T03:05:11;12.38;;;7.95;;
25123;SDS011;13104;51.030;4.686;2023-06-22T03:07:41;11.75;;;8.38;;
25123;SDS011;13104;51.030;4.686;2023-06-22T03:10:08;14.73;;;8.30;;
25123;SDS011;13104;51.030;4.686;2023-06-22T03:12:34;13.38;;;8.27;;
25123;SDS011;13104;51.030;4.686;2023-06-22T03:15:01;11.48;;;8.38;;
25123;SDS011;13104;51.030;4.686;2023-06-22T03:17:27;16.25;;;8.95;;
25123;SDS011;13104;51.030;4.686;2023-06-22T03:19:53;14.07;;;8.55;;
25123;SDS011;13104;51.030;4.686;2023-06-22T03:22:19;11.10;;;8.43;;
25123;SDS011;13104;51.030;4.686;2023-06-22T03:24:45;11.02;;;8.20;;
25123;SDS011;13104;51.030;4.686;2023-06-22T03:27:11;12.20;;;8.40;;
25123;SDS011;13104;51.030;4.686;2023-06-22T03:29:38;13.95;;;8.48;;
25123;SDS011;13104;51.030;4.686;2023-06-22T03:32:07;11.95;;;8.85;;
25123;SDS011;13104;51.030;4.686;2023-06-22T03:34:33;13.32;;;9.32;;
25123;SDS011;13104;51.030;4.686;2023-06-22T03:37:01;16.50;;;9.73;;
25123;SDS011;13104;51.030;4.686;2023-06-22T03:39:28;15.35;;;10.23;;
25123;SDS011;13104;51.030;4.686;2023-06-22T03:41:54;13.32;;;9.90;;
25123;SDS011;13104;51.030;4.686;2023-06-22T03:44:20;13.30;;;9.85;;
25123;SDS011;13104;51.030;4.686;2023-06-22T03:46:46;13.77;;;9.48;;
25123;SDS011;13104;51.030;4.686;2023-06-22T03:49:15;12.63;;;9.13;;
25123;SDS011;13104;51.030;4.686;2023-06-22T03:51:41;14.52;;;9.48;;
25123;SDS011;13104;51.030;4.686;2023-06-22T03:54:07;13.15;;;9.60;;
25123;SDS011;13104;51.030;4.686;2023-06-22T03:56:33;14.63;;;9.52;;
25123;SDS011;13104;51.030;4.686;2023-06-22T03:58:59;17.55;;;9.13;;
25123;SDS011;13104;51.030;4.686;2023-06-22T04:01:26;12.57;;;8.75;;
25123;SDS011;13104;51.030;4.686;2023-06-22T04:03:52;15.93;;;9.48;;
25123;SDS011;13104;51.030;4.686;2023-06-22T04:06:18;14.35;;;9.55;;
25123;SDS011;13104;51.030;4.686;2023-06-22T04:08:45;13.80;;;9.43;;
25123;SDS011;13104;51.030;4.686;2023-06-22T04:11:16;15.18;;;10.57;;
25123;SDS011;13104;51.030;4.686;2023-06-22T04:13:43;17.98;;;10.75;;
25123;SDS011;13104;51.030;4.686;2023-06-22T04:16:09;15.63;;;10.20;;
25123;SDS011;13104;51.030;4.686;2023-06-22T04:18:35;15.55;;;10.68;;
25123;SDS011;13104;51.030;4.686;2023-06-22T04:21:02;14.27;;;10.80;;
25123;SDS011;13104;51.030;4.686;2023-06-22T04:23:28;16.77;;;11.45;;
25123;SDS011;13104;51.030;4.686;2023-06-22T04:25:54;14.85;;;10.27;;
25123;SDS011;13104;51.030;4.686;2023-06-22T04:28:21;16.63;;;10.70;;
25123;SDS011;13104;51.030;4.686;2023-06-22T04:30:47;19.88;;;11.38;;
25123;SDS011;13104;51.030;4.686;2023-06-22T04:33:15;17.55;;;11.38;;
25123;SDS011;13104;51.030;4.686;2023-06-22T04:35:44;15.25;;;9.93;;
25123;SDS011;13104;51.030;4.686;2023-06-22T04:38:11;22.80;;;12.30;;
25123;SDS011;13104;51.030;4.686;2023-06-22T04:40:41;15.98;;;10.75;;
25123;SDS011;13104;51.030;4.686;2023-06-22T04:43:07;14.48;;;9.75;;
25123;SDS011;13104;51.030;4.686;2023-06-22T04:45:35;17.10;;;11.85;;
25123;SDS011;13104;51.030;4.686;2023-06-22T04:48:03;16.17;;;12.23;;
25123;SDS011;13104;51.030;4.686;2023-06-22T04:50:29;14.15;;;10.88;;
25123;SDS011;13104;51.030;4.686;2023-06-22T04:52:56;19.95;;;12.57;;
25123;SDS011;13104;51.030;4.686;2023-06-22T04:55:22;20.60;;;12.43;;
25123;SDS011;13104;51.030;4.686;2023-06-22T04:57:50;18.58;;;11.88;;
25123;SDS011;13104;51.030;4.686;2023-06-22T05:00:20;16.42;;;11.77;;
25123;SDS011;13104;51.030;4.686;2023-06-22T05:02:48;19.67;;;13.38;;
25123;SDS011;13104;51.030;4.686;2023-06-22T05:05:14;22.90;;;13.10;;
25123;SDS011;13104;51.030;4.686;2023-06-22T05:07:45;20.40;;;12.68;;
25123;SDS011;13104;51.030;4.686;2023-06-22T05:10:13;17.77;;;11.60;;
25123;SDS011;13104;51.030;4.686;2023-06-22T05:12:39;19.48;;;13.07;;
25123;SDS011;13104;51.030;4.686;2023-06-22T05:15:09;17.05;;;11.85;;
25123;SDS011;13104;51.030;4.686;2023-06-22T05:17:35;22.98;;;13.27;;
25123;SDS011;13104;51.030;4.686;2023-06-22T05:20:06;16.67;;;11.60;;
25123;SDS011;13104;51.030;4.686;2023-06-22T05:22:33;23.50;;;13.05;;
25123;SDS011;13104;51.030;4.686;2023-06-22T05:25:02;17.58;;;12.38;;
25123;SDS011;13104;51.030;4.686;2023-06-22T05:27:28;21.67;;;13.77;;
25123;SDS011;13104;51.030;4.686;2023-06-22T05:29:54;23.77;;;14.27;;
25123;SDS011;13104;51.030;4.686;2023-06-22T05:32:20;20.77;;;12.85;;
25123;SDS011;13104;51.030;4.686;2023-06-22T05:34:46;18.45;;;13.95;;
25123;SDS011;13104;51.030;4.686;2023-06-22T05:37:12;21.02;;;14.15;;
25123;SDS011;13104;51.030;4.686;2023-06-22T05:39:38;20.92;;;14.45;;
25123;SDS011;13104;51.030;4.686;2023-06-22T05:42:05;22.20;;;14.75;;
25123;SDS011;13104;51.030;4.686;2023-06-22T05:44:31;18.48;;;13.55;;
25123;SDS011;13104;51.030;4.686;2023-06-22T05:46:58;20.40;;;13.10;;
25123;SDS011;13104;51.030;4.686;2023-06-22T05:49:24;19.92;;;13.30;;
25123;SDS011;13104;51.030;4.686;2023-06-22T05:51:57;22.45;;;13.85;;
25123;SDS011;13104;51.030;4.686;2023-06-22T05:54:23;19.85;;;13.45;;
25123;SDS011;13104;51.030;4.686;2023-06-22T05:56:49;19.35;;;13.80;;
25123;SDS011;13104;51.030;4.686;2023-06-22T05:59:16;19.52;;;13.55;;
25123;SDS011;13104;51.030;4.686;2023-06-22T06:01:42;18.73;;;13.38;;
25123;SDS011;13104;51.030;4.686;2023-06-22T06:04:08;24.63;;;14.50;;
25123;SDS011;13104;51.030;4.686;2023-06-22T06:06:34;18.23;;;13.45;;
25123;SDS011;13104;51.030;4.686;2023-06-22T06:09:05;19.25;;;13.48;;
25123;SDS011;13104;51.030;4.686;2023-06-22T06:11:32;21.65;;;13.93;;
25123;SDS011;13104;51.030;4.686;2023-06-22T06:13:58;21.85;;;14.05;;
25123;SDS011;13104;51.030;4.686;2023-06-22T06:16:25;22.20;;;12.85;;
25123;SDS011;13104;51.030;4.686;2023-06-22T06:18:51;22.85;;;14.20;;
25123;SDS011;13104;51.030;4.686;2023-06-22T06:21:18;21.48;;;14.93;;
25123;SDS011;13104;51.030;4.686;2023-06-22T06:23:44;20.95;;;14.80;;
25123;SDS011;13104;51.030;4.686;2023-06-22T06:26:12;24.38;;;16.67;;
25123;SDS011;13104;51.030;4.686;2023-06-22T06:28:40;22.85;;;16.52;;
25123;SDS011;13104;51.030;4.686;2023-06-22T06:31:07;22.58;;;16.20;;
25123;SDS011;13104;51.030;4.686;2023-06-22T06:33:34;23.55;;;16.63;;
25123;SDS011;13104;51.030;4.686;2023-06-22T06:36:00;30.27;;;16.58;;
25123;SDS011;13104;51.030;4.686;2023-06-22T06:38:28;24.40;;;16.65;;
25123;SDS011;13104;51.030;4.686;2023-06-22T06:40:54;25.38;;;17.45;;
25123;SDS011;13104;51.030;4.686;2023-06-22T06:43:21;22.08;;;17.33;;
25123;SDS011;13104;51.030;4.686;2023-06-22T06:45:47;28.35;;;17.75;;
25123;SDS011;13104;51.030;4.686;2023-06-22T06:48:14;21.05;;;16.65;;
25123;SDS011;13104;51.030;4.686;2023-06-22T06:50:40;23.48;;;17.05;;
25123;SDS011;13104;51.030;4.686;2023-06-22T06:53:09;27.45;;;17.70;;
25123;SDS011;13104;51.030;4.686;2023-06-22T06:55:35;26.48;;;18.08;;
25123;SDS011;13104;51.030;4.686;2023-06-22T06:58:02;24.85;;;17.13;;
25123;SDS011;13104;51.030;4.686;2023-06-22T07:00:33;26.05;;;17.08;;
25123;SDS011;13104;51.030;4.686;2023-06-22T07:03:00;25.23;;;17.83;;
25123;SDS011;13104;51.030;4.686;2023-06-22T07:05:27;28.20;;;18.40;;
25123;SDS011;13104;51.030;4.686;2023-06-22T07:07:53;23.40;;;16.75;;
25123;SDS011;13104;51.030;4.686;2023-06-22T07:10:19;26.67;;;18.50;;
25123;SDS011;13104;51.030;4.686;2023-06-22T07:12:45;22.48;;;16.42;;
25123;SDS011;13104;51.030;4.686;2023-06-22T07:15:11;24.42;;;18.08;;
25123;SDS011;13104;51.030;4.686;2023-06-22T07:17:38;26.48;;;18.13;;
25123;SDS011;13104;51.030;4.686;2023-06-22T07:20:06;23.50;;;17.33;;
25123;SDS011;13104;51.030;4.686;2023-06-22T07:22:39;23.83;;;17.27;;
25123;SDS011;13104;51.030;4.686;2023-06-22T07:25:06;25.65;;;17.55;;
25123;SDS011;13104;51.030;4.686;2023-06-22T07:27:39;25.88;;;17.20;;
25123;SDS011;13104;51.030;4.686;2023-06-22T07:30:08;24.75;;;17.65;;
25123;SDS011;13104;51.030;4.686;2023-06-22T07:32:34;22.98;;;16.98;;
25123;SDS011;13104;51.030;4.686;2023-06-22T07:35:01;24.30;;;16.58;;
25123;SDS011;13104;51.030;4.686;2023-06-22T07:37:30;24.08;;;16.08;;
25123;SDS011;13104;51.030;4.686;2023-06-22T07:39:58;24.13;;;15.95;;
25123;SDS011;13104;51.030;4.686;2023-06-22T07:42:24;19.48;;;15.73;;
25123;SDS011;13104;51.030;4.686;2023-06-22T07:44:51;19.80;;;15.57;;
25123;SDS011;13104;51.030;4.686;2023-06-22T07:47:17;22.52;;;14.73;;
25123;SDS011;13104;51.030;4.686;2023-06-22T07:49:44;21.63;;;15.70;;
25123;SDS011;13104;51.030;4.686;2023-06-22T07:52:10;18.92;;;15.75;;
25123;SDS011;13104;51.030;4.686;2023-06-22T07:54:37;17.42;;;14.18;;
25123;SDS011;13104;51.030;4.686;2023-06-22T07:57:04;18.70;;;13.68;;
25123;SDS011;13104;51.030;4.686;2023-06-22T07:59:30;21.80;;;13.70;;
25123;SDS011;13104;51.030;4.686;2023-06-22T08:01:56;21.67;;;13.20;;
25123;SDS011;13104;51.030;4.686;2023-06-22T08:04:22;18.25;;;13.95;;
25123;SDS011;13104;51.030;4.686;2023-06-22T08:06:49;15.70;;;12.48;;
25123;SDS011;13104;51.030;4.686;2023-06-22T08:09:15;16.90;;;12.55;;
25123;SDS011;13104;51.030;4.686;2023-06-22T08:11:41;17.92;;;12.98;;
25123;SDS011;13104;51.030;4.686;2023-06-22T08:14:08;14.40;;;11.80;;
25123;SDS011;13104;51.030;4.686;2023-06-22T08:16:35;19.70;;;11.95;;
25123;SDS011;13104;51.030;4.686;2023-06-22T08:19:01;16.35;;;10.88;;
25123;SDS011;13104;51.030;4.686;2023-06-22T08:21:27;14.90;;;11.02;;
25123;SDS011;13104;51.030;4.686;2023-06-22T08:23:53;14.90;;;10.10;;
25123;SDS011;13104;51.030;4.686;2023-06-22T08:26:19;19.35;;;9.05;;
25123;SDS011;13104;51.030;4.686;2023-06-22T08:28:46;15.73;;;9.40;;
25123;SDS011;13104;51.030;4.686;2023-06-22T08:31:12;15.88;;;8.93;;
25123;SDS011;13104;51.030;4.686;2023-06-22T08:33:39;13.80;;;8.68;;
25123;SDS011;13104;51.030;4.686;2023-06-22T08:36:05;15.80;;;9.52;;
25123;SDS011;13104;51.030;4.686;2023-06-22T08:38:33;13.35;;;8.82;;
25123;SDS011;13104;51.030;4.686;2023-06-22T08:40:59;11.15;;;8.48;;
25123;SDS011;13104;51.030;4.686;2023-06-22T08:43:26;11.43;;;8.30;;
25123;SDS011;13104;51.030;4.686;2023-06-22T08:45:52;16.77;;;7.97;;
25123;SDS011;13104;51.030;4.686;2023-06-22T08:48:18;8.75;;;7.15;;
25123;SDS011;13104;51.030;4.686;2023-06-22T08:50:44;9.13;;;7.28;;
25123;SDS011;13104;51.030;4.686;2023-06-22T08:53:10;11.68;;;6.70;;
25123;SDS011;13104;51.030;4.686;2023-06-22T08:55:36;8.88;;;5.85;;
25123;SDS011;13104;51.030;4.686;2023-06-22T08:58:02;10.52;;;6.57;;
25123;SDS011;13104;51.030;4.686;2023-06-22T09:00:29;11.70;;;6.13;;
25123;SDS011;13104;51.030;4.686;2023-06-22T09:02:57;10.48;;;6.10;;
25123;SDS011;13104;51.030;4.686;2023-06-22T09:05:24;8.27;;;5.20;;
25123;SDS011;13104;51.030;4.686;2023-06-22T09:07:51;7.00;;;4.97;;
25123;SDS011;13104;51.030;4.686;2023-06-22T09:10:19;6.30;;;4.75;;
25123;SDS011;13104;51.030;4.686;2023-06-22T09:12:45;8.07;;;4.95;;
25123;SDS011;13104;51.030;4.686;2023-06-22T09:15:12;7.43;;;4.43;;
25123;SDS011;13104;51.030;4.686;2023-06-22T09:17:38;8.25;;;4.57;;
25123;SDS011;13104;51.030;4.686;2023-06-22T09:20:04;7.18;;;4.78;;
25123;SDS011;13104;51.030;4.686;2023-06-22T09:22:31;7.35;;;4.43;;
25123;SDS011;13104;51.030;4.686;2023-06-22T09:24:58;8.23;;;4.50;;
25123;SDS011;13104;51.030;4.686;2023-06-22T09:27:25;6.93;;;4.40;;
25123;SDS011;13104;51.030;4.686;2023-06-22T09:29:51;6.05;;;4.43;;
25123;SDS011;13104;51.030;4.686;2023-06-22T09:32:17;5.78;;;4.35;;
25123;SDS011;13104;51.030;4.686;2023-06-22T09:34:43;9.10;;;4.72;;
25123;SDS011;13104;51.030;4.686;2023-06-22T09:37:09;7.50;;;5.32;;
25123;SDS011;13104;51.030;4.686;2023-06-22T09:39:35;8.07;;;5.82;;
25123;SDS011;13104;51.030;4.686;2023-06-22T09:42:02;11.18;;;6.70;;
25123;SDS011;13104;51.030;4.686;2023-06-22T09:44:28;8.38;;;6.60;;
25123;SDS011;13104;51.030;4.686;2023-06-22T09:46:54;11.15;;;7.10;;
25123;SDS011;13104;51.030;4.686;2023-06-22T09:49:20;10.90;;;7.88;;
25123;SDS011;13104;51.030;4.686;2023-06-22T09:51:46;13.07;;;7.78;;
25123;SDS011;13104;51.030;4.686;2023-06-22T09:54:12;11.00;;;7.40;;
25123;SDS011;13104;51.030;4.686;2023-06-22T09:56:39;13.23;;;8.02;;
25123;SDS011;13104;51.030;4.686;2023-06-22T09:59:05;15.73;;;9.40;;
25123;SDS011;13104;51.030;4.686;2023-06-22T10:01:31;12.40;;;8.68;;
25123;SDS011;13104;51.030;4.686;2023-06-22T10:03:57;11.40;;;9.15;;
25123;SDS011;13104;51.030;4.686;2023-06-22T10:06:23;15.63;;;10.18;;
25123;SDS011;13104;51.030;4.686;2023-06-22T10:08:50;14.70;;;9.55;;
25123;SDS011;13104;51.030;4.686;2023-06-22T10:11:16;15.20;;;10.65;;
25123;SDS011;13104;51.030;4.686;2023-06-22T10:13:43;16.45;;;10.25;;
25123;SDS011;13104;51.030;4.686;2023-06-22T10:16:09;16.45;;;10.73;;
25123;SDS011;13104;51.030;4.686;2023-06-22T10:18:35;16.30;;;11.85;;
25123;SDS011;13104;51.030;4.686;2023-06-22T10:21:01;18.27;;;11.23;;
25123;SDS011;13104;51.030;4.686;2023-06-22T10:23:27;16.42;;;10.82;;
25123;SDS011;13104;51.030;4.686;2023-06-22T10:25:53;23.95;;;12.35;;
25123;SDS011;13104;51.030;4.686;2023-06-22T10:28:22;25.95;;;12.98;;
25123;SDS011;13104;51.030;4.686;2023-06-22T10:30:48;21.10;;;13.90;;
25123;SDS011;13104;51.030;4.686;2023-06-22T10:33:14;18.52;;;13.80;;
25123;SDS011;13104;51.030;4.686;2023-06-22T10:35:40;19.02;;;14.35;;
25123;SDS011;13104;51.030;4.686;2023-06-22T10:38:07;20.60;;;14.23;;
25123;SDS011;13104;51.030;4.686;2023-06-22T10:40:33;22.00;;;14.40;;
25123;SDS011;13104;51.030;4.686;2023-06-22T10:42:59;24.17;;;14.65;;
25123;SDS011;13104;51.030;4.686;2023-06-22T10:45:25;22.42;;;15.13;;
25123;SDS011;13104;51.030;4.686;2023-06-22T10:47:52;31.48;;;15.70;;
25123;SDS011;13104;51.030;4.686;2023-06-22T10:50:19;24.15;;;15.90;;
25123;SDS011;13104;51.030;4.686;2023-06-22T10:52:45;25.35;;;17.48;;
25123;SDS011;13104;51.030;4.686;2023-06-22T10:55:11;32.63;;;18.05;;
25123;SDS011;13104;51.030;4.686;2023-06-22T10:57:37;24.40;;;18.50;;
25123;SDS011;13104;51.030;4.686;2023-06-22T11:00:08;25.35;;;18.92;;
25123;SDS011;13104;51.030;4.686;2023-06-22T11:02:35;30.42;;;21.70;;
25123;SDS011;13104;51.030;4.686;2023-06-22T11:05:01;25.17;;;19.05;;
25123;SDS011;13104;51.030;4.686;2023-06-22T11:07:28;35.40;;;21.83;;
25123;SDS011;13104;51.030;4.686;2023-06-22T11:09:55;36.53;;;24.77;;
25123;SDS011;13104;51.030;4.686;2023-06-22T11:12:21;35.63;;;25.58;;
25123;SDS011;13104;51.030;4.686;2023-06-22T11:14:47;43.20;;;27.80;;
25123;SDS011;13104;51.030;4.686;2023-06-22T11:17:15;42.60;;;28.35;;
25123;SDS011;13104;51.030;4.686;2023-06-22T11:19:41;38.92;;;29.15;;
25123;SDS011;13104;51.030;4.686;2023-06-22T11:22:07;42.00;;;31.98;;
25123;SDS011;13104;51.030;4.686;2023-06-22T11:24:33;40.58;;;31.38;;
25123;SDS011;13104;51.030;4.686;2023-06-22T11:26:59;44.55;;;32.55;;
25123;SDS011;13104;51.030;4.686;2023-06-22T11:29:25;46.28;;;33.45;;
25123;SDS011;13104;51.030;4.686;2023-06-22T11:31:51;51.35;;;35.88;;
25123;SDS011;13104;51.030;4.686;2023-06-22T11:34:18;52.58;;;37.00;;
25123;SDS011;13104;51.030;4.686;2023-06-22T11:36:44;50.70;;;35.83;;
25123;SDS011;13104;51.030;4.686;2023-06-22T11:39:10;50.53;;;36.63;;
25123;SDS011;13104;51.030;4.686;2023-06-22T11:41:39;41.15;;;32.25;;
25123;SDS011;13104;51.030;4.686;2023-06-22T11:44:05;38.75;;;29.08;;
25123;SDS011;13104;51.030;4.686;2023-06-22T11:46:32;41.20;;;27.60;;
25123;SDS011;13104;51.030;4.686;2023-06-22T11:48:58;35.13;;;27.60;;
25123;SDS011;13104;51.030;4.686;2023-06-22T11:51:24;38.42;;;28.35;;
25123;SDS011;13104;51.030;4.686;2023-06-22T11:53:51;36.28;;;28.45;;
25123;SDS011;13104;51.030;4.686;2023-06-22T11:56:18;39.15;;;27.58;;
25123;SDS011;13104;51.030;4.686;2023-06-22T11:58:46;36.05;;;28.17;;
25123;SDS011;13104;51.030;4.686;2023-06-22T12:01:12;38.35;;;29.23;;
25123;SDS011;13104;51.030;4.686;2023-06-22T12:03:40;41.50;;;28.98;;
25123;SDS011;13104;51.030;4.686;2023-06-22T12:06:08;39.50;;;28.65;;
25123;SDS011;13104;51.030;4.686;2023-06-22T12:08:38;38.15;;;29.23;;
25123;SDS011;13104;51.030;4.686;2023-06-22T12:11:04;39.53;;;30.77;;
25123;SDS011;13104;51.030;4.686;2023-06-22T12:13:30;40.67;;;31.05;;
25123;SDS011;13104;51.030;4.686;2023-06-22T12:15:57;42.63;;;31.63;;
25123;SDS011;13104;51.030;4.686;2023-06-22T12:18:23;39.53;;;30.25;;
25123;SDS011;13104;51.030;4.686;2023-06-22T12:20:49;39.35;;;30.65;;
25123;SDS011;13104;51.030;4.686;2023-06-22T12:23:15;38.45;;;29.80;;
25123;SDS011;13104;51.030;4.686;2023-06-22T12:25:41;35.83;;;28.80;;
25123;SDS011;13104;51.030;4.686;2023-06-22T12:28:07;36.92;;;27.85;;
25123;SDS011;13104;51.030;4.686;2023-06-22T12:30:33;38.13;;;28.75;;
25123;SDS011;13104;51.030;4.686;2023-06-22T12:33:00;40.25;;;30.42;;
25123;SDS011;13104;51.030;4.686;2023-06-22T12:35:26;40.45;;;30.17;;
25123;SDS011;13104;51.030;4.686;2023-06-22T12:37:52;37.88;;;30.42;;
25123;SDS011;13104;51.030;4.686;2023-06-22T12:40:18;41.13;;;32.85;;
25123;SDS011;13104;51.030;4.686;2023-06-22T12:42:44;42.35;;;32.40;;
25123;SDS011;13104;51.030;4.686;2023-06-22T12:45:11;41.67;;;31.63;;
25123;SDS011;13104;51.030;4.686;2023-06-22T12:47:37;42.90;;;33.63;;
25123;SDS011;13104;51.030;4.686;2023-06-22T12:50:03;42.95;;;33.47;;
25123;SDS011;13104;51.030;4.686;2023-06-22T12:52:30;47.38;;;34.40;;
25123;SDS011;13104;51.030;4.686;2023-06-22T12:54:57;47.72;;;35.83;;
25123;SDS011;13104;51.030;4.686;2023-06-22T12:57:23;49.65;;;36.88;;
25123;SDS011;13104;51.030;4.686;2023-06-22T12:59:50;48.63;;;35.78;;
25123;SDS011;13104;51.030;4.686;2023-06-22T13:02:16;44.38;;;35.58;;
25123;SDS011;13104;51.030;4.686;2023-06-22T13:04:42;48.88;;;36.13;;
25123;SDS011;13104;51.030;4.686;2023-06-22T13:07:09;45.25;;;35.58;;
25123;SDS011;13104;51.030;4.686;2023-06-22T13:09:35;47.08;;;35.70;;
25123;SDS011;13104;51.030;4.686;2023-06-22T13:12:02;46.92;;;35.78;;
25123;SDS011;13104;51.030;4.686;2023-06-22T13:14:28;50.85;;;36.13;;
25123;SDS011;13104;51.030;4.686;2023-06-22T13:16:54;53.80;;;37.67;;
25123;SDS011;13104;51.030;4.686;2023-06-22T13:19:20;51.60;;;36.97;;
25123;SDS011;13104;51.030;4.686;2023-06-22T13:21:46;46.25;;;35.85;;
25123;SDS011;13104;51.030;4.686;2023-06-22T13:24:12;48.85;;;36.78;;
25123;SDS011;13104;51.030;4.686;2023-06-22T13:26:39;49.75;;;37.35;;
25123;SDS011;13104;51.030;4.686;2023-06-22T13:29:05;48.10;;;36.38;;
25123;SDS011;13104;51.030;4.686;2023-06-22T13:31:31;50.45;;;36.80;;
25123;SDS011;13104;51.030;4.686;2023-06-22T13:33:57;52.50;;;37.30;;
25123;SDS011;13104;51.030;4.686;2023-06-22T13:36:23;48.25;;;36.92;;
25123;SDS011;13104;51.030;4.686;2023-06-22T13:38:49;51.28;;;37.88;;
25123;SDS011;13104;51.030;4.686;2023-06-22T13:41:15;49.80;;;37.33;;
25123;SDS011;13104;51.030;4.686;2023-06-22T13:43:42;54.90;;;37.83;;
25123;SDS011;13104;51.030;4.686;2023-06-22T13:46:08;56.47;;;38.25;;
25123;SDS011;13104;51.030;4.686;2023-06-22T13:48:34;49.97;;;37.72;;
25123;SDS011;13104;51.030;4.686;2023-06-22T13:51:00;49.78;;;37.03;;
25123;SDS011;13104;51.030;4.686;2023-06-22T13:53:26;45.90;;;36.67;;
25123;SDS011;13104;51.030;4.686;2023-06-22T13:55:52;52.15;;;37.22;;
25123;SDS011;13104;51.030;4.686;2023-06-22T13:58:18;49.55;;;37.00;;
25123;SDS011;13104;51.030;4.686;2023-06-22T14:00:45;53.10;;;35.80;;
25123;SDS011;13104;51.030;4.686;2023-06-22T14:03:11;46.22;;;34.33;;
25123;SDS011;13104;51.030;4.686;2023-06-22T14:05:40;46.42;;;34.63;;
25123;SDS011;13104;51.030;4.686;2023-06-22T14:08:07;40.47;;;33.55;;
25123;SDS011;13104;51.030;4.686;2023-06-22T14:10:33;44.17;;;34.40;;
25123;SDS011;13104;51.030;4.686;2023-06-22T14:12:59;55.83;;;34.53;;
25123;SDS011;13104;51.030;4.686;2023-06-22T14:15:26;47.35;;;36.75;;
25123;SDS011;13104;51.030;4.686;2023-06-22T14:17:52;47.55;;;35.75;;
25123;SDS011;13104;51.030;4.686;2023-06-22T14:20:18;49.28;;;36.70;;
25123;SDS011;13104;51.030;4.686;2023-06-22T14:22:44;46.20;;;35.25;;
25123;SDS011;13104;51.030;4.686;2023-06-22T14:25:10;49.28;;;37.28;;
25123;SDS011;13104;51.030;4.686;2023-06-22T14:27:36;47.15;;;37.22;;
25123;SDS011;13104;51.030;4.686;2023-06-22T14:30:03;49.83;;;35.35;;
25123;SDS011;13104;51.030;4.686;2023-06-22T14:32:29;47.45;;;36.58;;
25123;SDS011;13104;51.030;4.686;2023-06-22T14:34:55;49.67;;;38.47;;